Hauptseite
METAR-TAF:

METAR-TAF

Flughäfen :

Morristown, New Jersey, Vereinigte Staaten

Breite: 40-48N, Länge: 074-25W, Höhe: 57 m

Beobachtung

Neuester Wetterbericht von vor 1 Stunde und 0 Minuten, um 23:58 UTC
Wind 7 kt aus West, Böen bis zu 16 kt
Temperatur 1°C
Luftfeuchtigkeit 59%
Luftdruck 1029 hPa
Sichtweite: 16.1 km
Leicht bewölkt in der Höhe von 25000 ft

METAR: KMMU 112358Z 26007G16KT 10SM FEW250 01/M06 A3038

Zeit: 19:58 (00:58 UTC)


TAF: fehlend

Wetterbeobachtungen und Prognosen von mehr als 4000 Flughäfen (METAR und TAF Bericht).

Die verfügbaren Stationen werden durch gelbe und rote Markierungen auf der Karte dargestellt.

Führen Sie die Maus auf sie, um den Namen der Station zu sehen.

Darauf klicken, um die Beobachtung von Wetterbeobachtungen und Prognosen zu sehen.

Um die Karte zu ändern : klicken Sie auf den grünen Tasten mit einem schwarzen Kreuz Zum Vergrößern, auf den grünen Button mit einem Gedankenstrich zu verkleinern, oder auf die grünen Pfeile für benachbarte Karten.


METAR-TAF: